Time;durP1;ratioP1;P1;durP2;ratioP2;P2;SDS_P1;SDS_P2;PMS_P1;PMS_P2;Temp;Humidity;BMP_temperature;BMP_pressure;BME280_temperature;BME280_humidity;BME280_pressure;Samples;Min_cycle;Max_cycle;Signal;HPM_P1;HPM_P2
2023/09/25 00:01:19;;;;;;;4.38;3.80;;;;;;;13.34;66.93;101333.03;31224600;27;116053;-65
2023/09/25 00:16:20;;;;;;;8.85;4.70;;;;;;;13.41;66.71;101322.56;31223426;28;111530;-68
2023/09/25 00:31:21;;;;;;;7.07;4.80;;;;;;;13.42;66.76;101321.53;31221645;28;97459;-64
2023/09/25 00:46:21;;;;;;;8.07;4.50;;;;;;;13.27;66.65;101307.94;31219111;28;97367;-63
2023/09/25 01:01:22;;;;;;;6.82;4.80;;;;;;;13.22;67.00;101318.28;31217570;27;96833;-64
2023/09/25 01:16:23;;;;;;;9.37;4.67;;;;;;;13.38;67.14;101328.22;31217268;28;97265;-66
2023/09/25 01:31:23;;;;;;;6.93;5.15;;;;;;;13.54;66.96;101344.38;31216925;28;96794;-66
2023/09/25 01:46:23;;;;;;;6.75;4.53;;;;;;;13.61;66.82;101324.97;31215098;28;96751;-67
2023/09/25 02:01:24;;;;;;;7.10;4.22;;;;;;;13.64;66.81;101305.91;31212598;28;109943;-75
2023/09/25 02:16:24;;;;;;;7.32;5.15;;;;;;;13.60;66.97;101293.84;31211521;27;97309;-67
2023/09/25 02:31:25;;;;;;;5.93;4.65;;;;;;;13.58;66.79;101272.59;31210040;28;100705;-74
2023/09/25 02:46:25;;;;;;;7.43;4.97;;;;;;;13.53;67.07;101258.84;31209134;28;106762;-70
2023/09/25 03:01:26;;;;;;;7.75;4.88;;;;;;;13.28;66.98;101247.22;31206979;28;96714;-64
2023/09/25 03:16:26;;;;;;;8.80;4.82;;;;;;;13.39;68.00;101233.56;31205041;28;97297;-64
2023/09/25 03:31:26;;;;;;;11.95;5.38;;;;;;;13.49;67.48;101233.41;31217187;27;96797;-75
2023/09/25 03:46:27;;;;;;;9.93;5.00;;;;;;;13.58;67.61;101245.00;31225851;28;97248;-65
2023/09/25 04:01:27;;;;;;;7.60;4.07;;;;;;;13.72;67.41;101257.72;31221680;28;115286;-66
2023/09/25 04:16:33;;;;;;;5.10;4.28;;;;;;;13.82;67.52;101265.59;31218851;28;97524;-67
2023/09/25 04:31:33;;;;;;;9.33;4.03;;;;;;;13.77;67.29;101267.97;31218580;28;97413;-68
2023/09/25 04:46:33;;;;;;;8.20;4.38;;;;;;;13.81;67.52;101275.47;31214850;27;112889;-74
2023/09/25 05:01:34;;;;;;;8.30;4.40;;;;;;;13.87;67.41;101266.81;31213507;28;96759;-63
2023/09/25 05:16:34;;;;;;;10.75;4.85;;;;;;;14.08;67.38;101272.66;31214049;28;97055;-75
2023/09/25 05:31:34;;;;;;;8.73;4.88;;;;;;;14.21;67.19;101273.84;31213325;28;107631;-77
2023/09/25 05:46:34;;;;;;;9.68;5.45;;;;;;;14.53;66.81;101263.28;31207193;27;113998;-73
2023/09/25 06:01:35;;;;;;;8.35;5.25;;;;;;;14.84;66.64;101260.72;31205063;28;113469;-64
2023/09/25 06:16:41;;;;;;;6.15;4.40;;;;;;;15.29;65.86;101255.66;31203983;28;97300;-71
2023/09/25 06:31:42;;;;;;;7.67;4.60;;;;;;;16.12;64.83;101253.31;31204689;28;97627;-77
2023/09/25 06:46:43;;;;;;;5.38;4.10;;;;;;;17.70;63.29;101269.38;31206911;28;96733;-79
2023/09/25 07:01:44;;;;;;;6.73;4.00;;;;;;;18.28;61.29;101277.41;31213863;27;97327;-67
2023/09/25 07:16:44;;;;;;;5.03;3.50;;;;;;;19.49;59.05;101283.53;31225121;28;97205;-73
2023/09/25 07:31:45;;;;;;;5.85;3.42;;;;;;;20.50;56.97;101279.94;31221630;28;114593;-76
2023/09/25 07:46:47;;;;;;;5.68;3.33;;;;;;;21.94;53.93;101288.03;31221187;28;97051;-70
2023/09/25 08:01:47;;;;;;;6.30;3.30;;;;;;;23.04;50.53;101284.97;31218526;28;97262;-73
2023/09/25 08:16:47;;;;;;;5.83;3.20;;;;;;;23.76;48.79;101270.69;31217871;27;112650;-73
2023/09/25 08:31:49;;;;;;;4.63;3.00;;;;;;;27.51;43.36;101271.38;31219082;28;107204;-79
2023/09/25 08:46:49;;;;;;;7.57;2.70;;;;;;;34.99;31.15;101257.41;31217323;28;97368;-74
2023/09/25 09:01:51;;;;;;;4.53;2.33;;;;;;;41.97;23.57;101243.88;31215655;28;98430;-83
2023/09/25 09:16:58;;;;;;;3.67;1.90;;;;;;;43.63;19.91;101236.41;31195370;28;98550;-70
2023/09/25 09:31:58;;;;;;;2.73;2.10;;;;;;;33.81;27.56;101220.94;31209024;27;98541;-75
2023/09/25 09:47:04;;;;;;;8.90;3.10;;;;;;;34.08;27.74;101226.50;31209882;28;97329;-66
2023/09/25 10:02:05;;;;;;;3.97;1.73;;;;;;;44.91;18.30;101226.84;31209932;28;96774;-81
2023/09/25 10:17:06;;;;;;;2.17;1.40;;;;;;;39.05;22.09;101221.28;31208490;28;97443;-79
2023/09/25 10:32:11;;;;;;;4.10;1.40;;;;;;;32.07;28.12;101203.59;31206808;28;97234;-67
2023/09/25 10:47:11;;;;;;;3.57;1.90;;;;;;;26.32;35.87;101197.97;31204122;28;97086;-63
2023/09/25 11:02:15;;;;;;;7.45;2.00;;;;;;;25.31;39.84;101199.53;31203276;28;97077;-64
2023/09/25 11:17:15;;;;;;;5.03;2.07;;;;;;;25.18;39.71;101189.75;31203799;28;111586;-67
2023/09/25 11:32:19;;;;;;;5.57;2.70;;;;;;;23.70;42.51;101181.81;31201160;28;97213;-74
2023/09/25 11:47:19;;;;;;;5.30;2.40;;;;;;;23.33;44.73;101169.19;31207592;28;96888;-79
2023/09/25 12:02:20;;;;;;;7.00;1.90;;;;;;;23.43;46.01;101168.66;31231591;28;110984;-64
2023/09/25 12:17:20;;;;;;;8.18;3.10;;;;;;;22.98;46.82;101170.69;31229594;28;97299;-75
2023/09/25 12:32:20;;;;;;;3.30;1.20;;;;;;;22.56;48.72;101176.00;31219255;28;97859;-77
2023/09/25 12:47:26;;;;;;;5.80;2.10;;;;;;;22.26;49.49;101163.13;31214964;28;96691;-70
2023/09/25 13:02:27;;;;;;;4.43;1.53;;;;;;;21.44;51.13;101179.44;31213278;27;97442;-63
2023/09/25 13:17:27;;;;;;;5.43;2.03;;;;;;;21.41;52.25;101185.31;31212363;28;96811;-68
2023/09/25 13:32:27;;;;;;;2.60;1.63;;;;;;;20.89;53.76;101178.06;31212845;28;96802;-87
2023/09/25 13:47:28;;;;;;;2.87;1.63;;;;;;;20.76;54.78;101184.38;31211505;28;117042;-64
2023/09/25 14:02:28;;;;;;;6.47;2.10;;;;;;;20.79;54.95;101164.16;31213523;28;97337;-66
2023/09/25 14:17:28;;;;;;;4.47;2.30;;;;;;;20.71;55.40;101180.59;31209804;28;111494;-66
2023/09/25 14:32:28;;;;;;;4.53;3.47;;;;;;;20.55;56.12;101177.31;31188393;28;99434;-64
2023/09/25 14:47:29;;;;;;;7.47;2.75;;;;;;;20.25;57.15;101179.66;31204935;28;113873;-68
2023/09/25 15:02:30;;;;;;;;;;;;;;;20.10;57.84;101177.19;31205795;28;97177;-68
2023/09/25 15:17:31;;;;;;;5.05;3.08;;;;;;;20.21;57.78;101168.41;31204663;28;97192;-69
2023/09/25 15:32:31;;;;;;;5.97;3.22;;;;;;;20.13;58.05;101165.94;31219950;27;96811;-64
2023/09/25 15:47:32;;;;;;;5.07;3.00;;;;;;;19.73;58.90;101157.81;31223744;28;97223;-63
2023/09/25 16:02:32;;;;;;;6.38;2.95;;;;;;;19.50;59.83;101148.22;31220701;28;97240;-64
2023/09/25 16:17:32;;;;;;;6.00;3.60;;;;;;;19.30;60.48;101144.66;31217872;28;97010;-64
2023/09/25 16:32:33;;;;;;;4.78;3.45;;;;;;;18.97;61.40;101145.41;31214531;27;106731;-64
2023/09/25 16:47:33;;;;;;;7.00;4.45;;;;;;;18.52;62.43;101141.25;31213425;28;96700;-69
2023/09/25 17:02:34;;;;;;;7.75;4.20;;;;;;;18.10;63.80;101134.97;31213394;28;97654;-63
2023/09/25 17:17:34;;;;;;;9.93;4.85;;;;;;;17.75;64.85;101124.09;31213847;28;101884;-63
2023/09/25 17:32:34;;;;;;;7.75;4.90;;;;;;;17.43;65.66;101139.78;31211256;28;114949;-75
2023/09/25 17:47:37;;;;;;;7.25;5.05;;;;;;;17.16;66.85;101136.00;31209091;27;113136;-72
2023/09/25 18:02:39;;;;;;;9.13;5.40;;;;;;;16.92;68.00;101152.31;31208843;28;98548;-73
2023/09/25 18:17:39;;;;;;;8.80;4.93;;;;;;;16.99;68.80;101152.38;31208887;28;97060;-64
2023/09/25 18:32:40;;;;;;;7.13;5.20;;;;;;;17.03;69.43;101159.06;31210021;28;97038;-70
2023/09/25 18:47:40;;;;;;;9.10;5.68;;;;;;;17.07;69.91;101151.41;31203039;28;97700;-68
2023/09/25 19:02:41;;;;;;;9.00;4.95;;;;;;;17.08;69.92;101159.28;31220326;27;111178;-67
2023/09/25 19:17:41;;;;;;;8.50;5.70;;;;;;;16.71;70.83;101157.59;31222742;28;97219;-69
2023/09/25 19:32:41;;;;;;;11.27;6.53;;;;;;;16.46;71.45;101157.88;31222361;28;112454;-76
2023/09/25 19:47:42;;;;;;;10.18;6.20;;;;;;;16.30;72.16;101158.06;31221397;27;97178;-72
2023/09/25 20:02:42;;;;;;;11.13;7.35;;;;;;;15.93;73.00;101149.03;31224308;28;96705;-63
2023/09/25 20:17:43;;;;;;;8.68;7.03;;;;;;;15.70;73.92;101145.28;31222829;27;97630;-77
2023/09/25 20:32:44;;;;;;;9.52;7.47;;;;;;;15.53;74.62;101130.34;31203136;28;98289;-64
2023/09/25 20:47:44;;;;;;;16.13;8.32;;;;;;;15.39;75.11;101134.63;31218134;27;97759;-63
2023/09/25 21:02:44;;;;;;;12.57;7.95;;;;;;;15.20;75.77;101142.16;31217600;28;97128;-63
2023/09/25 21:17:45;;;;;;;13.77;9.35;;;;;;;15.08;76.30;101146.25;31213497;27;97362;-64
2023/09/25 21:32:45;;;;;;;12.52;8.15;;;;;;;15.04;76.69;101129.66;31215094;28;97247;-64
2023/09/25 21:47:45;;;;;;;12.77;8.52;;;;;;;14.96;76.99;101123.50;31216239;27;96751;-72
2023/09/25 22:02:45;;;;;;;11.95;8.07;;;;;;;14.86;77.85;101110.31;31213036;28;113000;-72
2023/09/25 22:17:46;;;;;;;13.68;9.30;;;;;;;14.79;78.15;101101.28;31212096;28;112133;-63
2023/09/25 22:32:50;;;;;;;12.93;8.80;;;;;;;14.70;78.17;101089.78;31209638;28;96720;-74
2023/09/25 22:47:50;;;;;;;11.60;8.83;;;;;;;14.56;78.90;101084.09;31209798;27;96818;-69
2023/09/25 23:02:56;;;;;;;13.27;8.52;;;;;;;14.49;79.05;101093.00;31208801;28;100168;-69
2023/09/25 23:17:56;;;;;;;14.73;8.83;;;;;;;14.40;79.52;101089.53;31206817;28;97014;-69
2023/09/25 23:32:57;;;;;;;17.00;10.45;;;;;;;14.34;79.84;101082.19;31205949;28;97265;-72
2023/09/25 23:47:57;;;;;;;15.80;9.73;;;;;;;14.29;80.00;101081.88;31218478;27;97212;-74
